Time;durP1;ratioP1;P1;durP2;ratioP2;P2;SDS_P1;SDS_P2;PMS_P1;PMS_P2;Temp;Humidity;BMP_temperature;BMP_pressure;BME280_temperature;BME280_humidity;BME280_pressure;Samples;Min_cycle;Max_cycle;Signal;HPM_P1;HPM_P2
2022/07/06 00:02:23;;;;;;;;;0.00;0.00;;;;;16.84;55.06;102558.25;5014330;28;8977;-66
2022/07/06 00:04:49;;;;;;;;;1.00;1.00;;;;;16.81;55.03;102559.47;5008183;28;9642;-67
2022/07/06 00:07:16;;;;;;;;;0.00;0.00;;;;;16.78;55.21;102554.44;5013896;28;8922;-67
2022/07/06 00:09:42;;;;;;;;;0.00;0.00;;;;;16.75;55.69;102557.53;5012250;28;9003;-67
2022/07/06 00:12:09;;;;;;;;;0.00;0.00;;;;;16.71;55.52;102565.22;5013476;28;8998;-65
2022/07/06 00:14:35;;;;;;;;;1.00;1.00;;;;;16.68;55.68;102554.72;5009611;28;9632;-65
2022/07/06 00:17:02;;;;;;;;;0.00;0.00;;;;;16.66;56.14;102550.53;4997072;28;9041;-67
2022/07/06 00:19:29;;;;;;;;;0.00;0.00;;;;;16.63;56.19;102559.06;5013071;28;8825;-66
2022/07/06 00:21:55;;;;;;;;;7.33;3.67;;;;;16.59;56.14;102558.59;5002722;28;9026;-65
2022/07/06 00:24:22;;;;;;;;;3.00;3.00;;;;;16.55;56.15;102555.41;5007500;28;9163;-66
2022/07/06 00:26:49;;;;;;;;;2.00;2.00;;;;;16.51;56.49;102548.69;5013221;28;9053;-67
2022/07/06 00:29:16;;;;;;;;;0.67;0.00;;;;;16.47;56.67;102558.25;5012766;28;9921;-70
2022/07/06 00:31:43;;;;;;;;;0.00;0.00;;;;;16.41;56.69;102566.34;5013946;28;9075;-65
2022/07/06 00:34:09;;;;;;;;;0.00;0.00;;;;;16.37;57.18;102556.88;5030716;28;9221;-69
2022/07/06 00:36:36;;;;;;;;;0.00;0.00;;;;;16.34;57.04;102559.97;5008930;28;9162;-66
2022/07/06 00:39:02;;;;;;;;;0.00;0.00;;;;;16.29;57.33;102558.69;5035726;28;9177;-67
2022/07/06 00:41:30;;;;;;;;;0.00;0.00;;;;;16.25;57.34;102557.38;5012223;28;9155;-66
2022/07/06 00:43:56;;;;;;;;;0.00;0.00;;;;;16.23;57.38;102559.41;5012751;28;9094;-65
2022/07/06 00:46:32;;;;;;;;;0.00;0.00;;;;;16.20;57.57;102558.94;5013366;28;9144;-66
2022/07/06 00:48:59;;;;;;;;;1.00;1.00;;;;;16.18;57.52;102558.31;5012325;28;9058;-65
2022/07/06 00:51:32;;;;;;;;;0.00;0.00;;;;;16.14;57.75;102555.13;5007031;28;8927;-66
2022/07/06 00:54:02;;;;;;;;;1.00;1.00;;;;;16.11;57.90;102557.38;5028942;28;9305;-65
2022/07/06 00:56:30;;;;;;;;;1.00;1.00;;;;;16.09;57.67;102554.03;5012762;28;9057;-65
2022/07/06 00:58:58;;;;;;;;;1.67;1.00;;;;;16.06;58.10;102556.06;5028068;28;9158;-66
2022/07/06 01:01:25;;;;;;;;;0.00;0.00;;;;;16.03;57.84;102552.88;4992472;28;9180;-66
2022/07/06 01:03:51;;;;;;;;;1.00;1.00;;;;;16.00;58.17;102547.81;4996515;28;9249;-65
2022/07/06 01:06:18;;;;;;;;;3.00;0.00;;;;;15.97;58.03;102537.34;5012666;28;9136;-65
2022/07/06 01:08:45;;;;;;;;;0.00;0.00;;;;;15.95;57.81;102542.97;5012351;28;9069;-65
2022/07/06 01:11:12;;;;;;;;;1.00;0.67;;;;;15.94;58.08;102546.72;4999919;28;9061;-64
2022/07/06 01:13:39;;;;;;;;;0.00;0.00;;;;;15.93;58.33;102555.06;5009825;28;9059;-64
2022/07/06 01:16:06;;;;;;;;;0.67;0.67;;;;;15.90;58.18;102552.72;5011295;28;9291;-64
2022/07/06 01:18:33;;;;;;;;;0.00;0.00;;;;;15.89;58.52;102556.47;4993210;28;9080;-65
2022/07/06 01:21:14;;;;;;;;;0.33;0.33;;;;;15.89;58.47;102551.88;4999366;28;8935;-67
2022/07/06 01:23:42;;;;;;;;;1.00;0.00;;;;;15.88;58.56;102552.03;5002644;28;9154;-64
2022/07/06 01:26:10;;;;;;;;;0.00;0.00;;;;;15.87;58.86;102553.09;5019077;28;9222;-65
2022/07/06 01:28:38;;;;;;;;;0.33;0.33;;;;;15.87;58.67;102545.78;5011838;28;9227;-65
2022/07/06 01:31:04;;;;;;;;;0.00;0.00;;;;;15.89;58.60;102554.59;5010585;28;9154;-65
2022/07/06 01:33:31;;;;;;;;;2.00;0.00;;;;;15.92;58.49;102548.78;5010102;28;9332;-64
2022/07/06 01:35:57;;;;;;;;;0.00;0.00;;;;;15.93;58.46;102542.31;5009356;28;9996;-65
2022/07/06 01:38:24;;;;;;;;;1.00;1.00;;;;;15.96;58.38;102533.81;5007381;28;8921;-64
2022/07/06 01:40:50;;;;;;;;;1.00;1.00;;;;;16.00;58.61;102543.25;4992193;28;9012;-64
2022/07/06 01:43:18;;;;;;;;;0.00;0.00;;;;;16.02;58.71;102535.75;4998914;28;9177;-66
2022/07/06 01:45:44;;;;;;;;;0.00;0.00;;;;;16.05;58.38;102539.97;5012187;28;9130;-67
2022/07/06 01:48:12;;;;;;;;;1.00;1.00;;;;;16.07;58.19;102530.59;5043810;28;9056;-66
2022/07/06 01:50:39;;;;;;;;;1.00;1.00;;;;;16.08;58.21;102534.13;5010120;28;9066;-65
2022/07/06 01:53:05;;;;;;;;;0.00;0.00;;;;;16.11;58.14;102535.66;4999244;28;9220;-66
2022/07/06 01:55:32;;;;;;;;;1.00;1.00;;;;;16.11;57.84;102543.78;5007143;28;9223;-64
2022/07/06 01:57:58;;;;;;;;;2.00;1.00;;;;;16.12;58.06;102535.44;5009663;28;9158;-64
2022/07/06 02:00:25;;;;;;;;;1.00;1.00;;;;;16.14;58.06;102540.72;5012891;28;9170;-66
2022/07/06 02:02:52;;;;;;;;;0.00;0.00;;;;;16.15;58.35;102532.34;5011066;28;8964;-66
2022/07/06 02:05:18;;;;;;;;;0.33;0.33;;;;;16.14;58.42;102538.00;5011559;28;8974;-66
2022/07/06 02:07:45;;;;;;;;;0.00;0.00;;;;;16.15;58.41;102529.63;5009693;28;9086;-66
2022/07/06 02:10:12;;;;;;;;;0.00;0.00;;;;;16.17;58.23;102538.47;5010567;28;9243;-65
2022/07/06 02:12:38;;;;;;;;;1.00;1.00;;;;;16.16;58.10;102534.03;5011614;28;9743;-66
2022/07/06 02:15:05;;;;;;;;;0.00;0.00;;;;;16.18;58.60;102528.44;5007677;28;8999;-67
2022/07/06 02:17:33;;;;;;;;;0.00;0.00;;;;;16.18;58.17;102525.72;5011055;28;8984;-67
2022/07/06 02:19:59;;;;;;;;;0.00;0.00;;;;;16.18;58.51;102526.56;5011784;28;9154;-68
2022/07/06 02:22:27;;;;;;;;;0.00;0.00;;;;;16.18;58.54;102539.28;5025776;28;9065;-67
2022/07/06 02:24:54;;;;;;;;;0.33;0.33;;;;;16.17;58.54;102533.03;5012483;28;9136;-67
2022/07/06 02:27:21;;;;;;;;;0.00;0.00;;;;;16.17;58.60;102532.19;5017296;28;9139;-66
2022/07/06 02:29:48;;;;;;;;;1.00;1.00;;;;;16.17;58.30;102535.75;5006651;28;8915;-66
2022/07/06 02:32:14;;;;;;;;;0.00;0.00;;;;;16.18;58.58;102537.41;5001809;28;9011;-66
2022/07/06 02:34:41;;;;;;;;;0.00;0.00;;;;;16.17;58.09;102534.91;5009414;28;9009;-66
2022/07/06 02:37:09;;;;;;;;;0.00;0.00;;;;;16.16;58.42;102528.59;5007936;28;9005;-66
2022/07/06 02:39:36;;;;;;;;;0.00;0.00;;;;;16.14;58.08;102536.13;5013330;28;9122;-67
2022/07/06 02:42:03;;;;;;;;;0.00;0.00;;;;;16.07;58.10;102527.88;5043285;28;9191;-66
2022/07/06 02:44:30;;;;;;;;;0.00;0.00;;;;;16.05;58.40;102537.25;5026230;28;9095;-67
2022/07/06 02:46:57;;;;;;;;;0.00;0.00;;;;;16.02;58.16;102538.47;5009955;28;8947;-67
2022/07/06 02:49:23;;;;;;;;;0.00;0.00;;;;;16.01;58.37;102544.09;5010652;28;8996;-66
2022/07/06 02:51:50;;;;;;;;;0.00;0.00;;;;;15.97;58.15;102548.22;5009621;28;9071;-66
2022/07/06 02:54:16;;;;;;;;;0.00;0.00;;;;;15.95;58.40;102547.56;5006840;28;9042;-66
2022/07/06 02:56:44;;;;;;;;;0.00;0.00;;;;;15.90;58.44;102547.28;5009822;28;9064;-67
2022/07/06 02:59:11;;;;;;;;;0.00;0.00;;;;;15.86;58.60;102549.53;5009318;28;9044;-66
2022/07/06 03:01:41;;;;;;;;;0.00;0.00;;;;;15.86;58.77;102543.25;4993134;28;8985;-66
2022/07/06 03:04:07;;;;;;;;;1.00;0.33;;;;;15.84;58.99;102546.16;4993352;28;9032;-66
2022/07/06 03:06:34;;;;;;;;;0.00;0.00;;;;;15.86;59.01;102543.25;5011114;28;9220;-67
2022/07/06 03:09:00;;;;;;;;;0.00;0.00;;;;;15.86;59.14;102537.81;5002913;28;9074;-67
2022/07/06 03:11:27;;;;;;;;;0.00;0.00;;;;;15.86;59.04;102538.66;4990761;28;9273;-66
2022/07/06 03:13:53;;;;;;;;;0.00;0.00;;;;;15.88;59.19;102535.75;5010497;28;9146;-67
2022/07/06 03:16:20;;;;;;;;;1.00;0.00;;;;;15.89;59.23;102541.00;5001702;28;9082;-66
2022/07/06 03:18:47;;;;;;;;;0.00;0.00;;;;;15.90;59.36;102541.84;4999692;28;9009;-66
2022/07/06 03:21:14;;;;;;;;;0.00;0.00;;;;;15.90;59.25;102534.53;5008137;28;9799;-67
2022/07/06 03:23:40;;;;;;;;;0.00;0.00;;;;;15.93;59.47;102538.78;5000089;28;9005;-67
2022/07/06 03:26:07;;;;;;;;;0.00;0.00;;;;;15.94;59.27;102545.88;5006666;28;9098;-66
2022/07/06 03:28:33;;;;;;;;;0.00;0.00;;;;;15.94;59.47;102549.44;4997640;28;8919;-66
2022/07/06 03:31:00;;;;;;;;;0.00;0.00;;;;;15.97;59.51;102537.34;5005439;28;9006;-68
2022/07/06 03:33:27;;;;;;;;;0.00;0.00;;;;;15.98;59.45;102544.47;4990570;28;9138;-68
2022/07/06 03:35:53;;;;;;;;;0.00;0.00;;;;;15.98;59.45;102541.75;5005552;28;9109;-66
2022/07/06 03:38:20;;;;;;;;;0.00;0.00;;;;;16.00;59.53;102545.09;5003272;28;9058;-66
2022/07/06 03:40:47;;;;;;;;;0.00;0.00;;;;;16.01;59.34;102536.78;5008229;28;9157;-67
2022/07/06 03:43:14;;;;;;;;;0.00;0.00;;;;;16.04;59.37;102541.84;5007108;28;9098;-67
2022/07/06 03:45:41;;;;;;;;;0.00;0.00;;;;;16.06;59.26;102536.22;4998233;28;9027;-67
2022/07/06 03:48:08;;;;;;;;;0.00;0.00;;;;;16.06;58.85;102531.63;4990191;28;9024;-67
2022/07/06 03:50:38;;;;;;;;;0.00;0.00;;;;;16.10;59.14;102533.97;5011482;28;9031;-67
2022/07/06 03:53:05;;;;;;;;;0.00;0.00;;;;;16.11;58.85;102536.47;5020199;28;8939;-67
2022/07/06 03:55:32;;;;;;;;;0.67;0.00;;;;;16.13;58.85;102537.16;5011002;28;8902;-67
2022/07/06 03:58:02;;;;;;;;;0.00;0.00;;;;;16.14;58.76;102536.13;5009367;28;9081;-66
2022/07/06 04:00:34;;;;;;;;;0.00;0.00;;;;;16.15;58.32;102539.66;5009328;28;9059;-67
2022/07/06 04:03:04;;;;;;;;;0.00;0.00;;;;;16.16;58.31;102535.91;5009918;28;9087;-67
2022/07/06 04:05:36;;;;;;;;;0.00;0.00;;;;;16.17;58.48;102541.19;5007893;28;9087;-66
2022/07/06 04:08:03;;;;;;;;;0.00;0.00;;;;;16.18;58.17;102542.84;5032965;28;9064;-67
2022/07/06 04:10:38;;;;;;;;;0.00;0.00;;;;;16.20;58.10;102531.78;5008336;28;9027;-67
2022/07/06 04:13:05;;;;;;;;;0.00;0.00;;;;;16.20;57.74;102538.06;5033884;28;9169;-67
2022/07/06 04:15:31;;;;;;;;;0.00;0.00;;;;;16.23;58.17;102528.69;5011915;28;9853;-66
2022/07/06 04:17:59;;;;;;;;;0.00;0.00;;;;;16.23;58.11;102526.81;5000728;28;8918;-67
2022/07/06 04:20:41;;;;;;;;;0.00;0.00;;;;;16.24;57.83;102525.78;4997010;28;8832;-66
2022/07/06 04:23:08;;;;;;;;;0.00;0.00;;;;;16.27;57.90;102541.69;4989655;28;9017;-67
2022/07/06 04:25:34;;;;;;;;;0.00;0.00;;;;;16.31;57.99;102536.72;5003285;28;9025;-65
2022/07/06 04:28:02;;;;;;;;;0.00;0.00;;;;;16.31;58.19;102542.16;5027191;28;8904;-65
2022/07/06 04:30:30;;;;;;;;;0.00;0.00;;;;;16.34;57.90;102543.69;5006176;28;8990;-65
2022/07/06 04:32:57;;;;;;;;;0.00;0.00;;;;;16.34;58.13;102541.78;5020576;28;10135;-65
2022/07/06 04:35:27;;;;;;;;;0.00;0.00;;;;;16.33;58.08;102534.69;5008955;28;8992;-64
2022/07/06 04:37:54;;;;;;;;;0.00;0.00;;;;;16.34;57.70;102535.53;5010449;28;9004;-65
2022/07/06 04:40:21;;;;;;;;;0.00;0.00;;;;;16.37;57.79;102541.41;5010029;28;8932;-65
2022/07/06 04:42:51;;;;;;;;;0.00;0.00;;;;;16.35;58.08;102538.03;5012150;28;9097;-65
2022/07/06 04:45:19;;;;;;;;;0.00;0.00;;;;;16.38;57.95;102534.09;5026711;28;9048;-65
2022/07/06 04:47:46;;;;;;;;;0.00;0.00;;;;;16.41;57.99;102537.28;5008565;28;8919;-65
2022/07/06 04:50:13;;;;;;;;;1.00;0.00;;;;;16.41;57.35;102534.56;5019158;28;8944;-65
2022/07/06 04:52:41;;;;;;;;;0.00;0.00;;;;;16.41;57.38;102541.88;5027507;28;8959;-65
2022/07/06 04:55:10;;;;;;;;;1.00;0.00;;;;;16.42;57.04;102547.13;5011913;28;9005;-64
2022/07/06 04:57:36;;;;;;;;;0.00;0.00;;;;;16.44;57.49;102536.88;5011489;28;8933;-64
2022/07/06 05:00:04;;;;;;;;;0.00;0.00;;;;;16.49;57.07;102547.22;5002581;28;9656;-65
2022/07/06 05:02:31;;;;;;;;;0.00;0.00;;;;;16.45;57.08;102543.19;5011904;28;8928;-65
2022/07/06 05:04:58;;;;;;;;;0.00;0.00;;;;;16.48;57.25;102543.63;5022766;28;9001;-64
2022/07/06 05:07:28;;;;;;;;;0.00;0.00;;;;;16.50;57.23;102544.28;5007794;28;9684;-65
2022/07/06 05:09:55;;;;;;;;;0.00;0.00;;;;;16.50;57.18;102546.16;5020083;28;8813;-64
2022/07/06 05:12:22;;;;;;;;;0.00;0.00;;;;;16.52;56.84;102542.19;5020699;28;8939;-65
2022/07/06 05:14:49;;;;;;;;;0.00;0.00;;;;;16.52;56.93;102555.78;5016270;28;8923;-66
2022/07/06 05:17:18;;;;;;;;;0.00;0.00;;;;;16.51;57.02;102558.72;5008035;28;8934;-64
2022/07/06 05:19:45;;;;;;;;;0.00;0.00;;;;;16.49;57.08;102560.78;5000171;28;8986;-65
2022/07/06 05:22:11;;;;;;;;;0.00;0.00;;;;;16.39;56.64;102560.25;5010992;28;8926;-65
2022/07/06 05:24:38;;;;;;;;;0.00;0.00;;;;;16.37;56.83;102556.88;5019626;28;8948;-64
2022/07/06 05:27:04;;;;;;;;;0.00;0.00;;;;;16.43;56.99;102556.94;5010895;28;9920;-65
2022/07/06 05:29:31;;;;;;;;;0.00;0.00;;;;;16.50;56.92;102557.88;5024652;28;8951;-63
2022/07/06 05:31:57;;;;;;;;;0.00;0.00;;;;;16.58;56.72;102554.19;5007527;28;8932;-66
2022/07/06 05:34:24;;;;;;;;;0.00;0.00;;;;;16.61;56.53;102559.25;4995348;28;8994;-66
2022/07/06 05:36:51;;;;;;;;;0.50;0.25;;;;;16.73;56.62;102560.47;5006958;28;8929;-66
2022/07/06 05:39:20;;;;;;;;;0.00;0.00;;;;;16.88;56.40;102565.00;5004727;28;8868;-66
2022/07/06 05:41:48;;;;;;;;;0.00;0.00;;;;;17.09;55.83;102564.97;4999786;28;8937;-65
2022/07/06 05:44:16;;;;;;;;;0.00;0.00;;;;;17.22;54.94;102572.44;5010659;28;8871;-64
2022/07/06 05:46:43;;;;;;;;;0.25;0.00;;;;;17.31;54.28;102573.97;5010921;28;8839;-65
2022/07/06 05:51:55;;;;;;;;;0.00;0.00;;;;;17.54;52.95;102565.56;5026229;28;8848;-65
2022/07/06 05:54:22;;;;;;;;;0.00;0.00;;;;;17.50;52.65;102576.03;5010667;28;8813;-65
2022/07/06 05:56:48;;;;;;;;;0.00;0.00;;;;;17.50;52.71;102576.03;5010828;28;8829;-65
2022/07/06 05:59:15;;;;;;;;;0.00;0.00;;;;;17.61;53.11;102571.91;5027332;28;8828;-65
2022/07/06 06:01:42;;;;;;;;;0.00;0.00;;;;;17.74;53.03;102573.88;5006626;28;8851;-64
2022/07/06 06:04:13;;;;;;;;;0.00;0.00;;;;;17.82;52.90;102572.91;5003983;28;8839;-65
2022/07/06 06:06:39;;;;;;;;;0.00;0.00;;;;;17.88;52.45;102574.84;4999561;28;8855;-64
2022/07/06 06:09:06;;;;;;;;;0.00;0.00;;;;;17.91;52.02;102582.63;5011506;28;9548;-64
2022/07/06 06:11:32;;;;;;;;;0.00;0.00;;;;;17.96;52.02;102580.13;4997706;28;8931;-66
2022/07/06 06:13:59;;;;;;;;;0.00;0.00;;;;;17.92;51.71;102576.94;5009679;28;8911;-67
2022/07/06 06:16:26;;;;;;;;;0.00;0.00;;;;;17.81;51.37;102572.06;5010508;28;8833;-65
2022/07/06 06:18:52;;;;;;;;;0.00;0.00;;;;;17.78;52.24;102581.50;5011443;28;8816;-65
2022/07/06 06:21:19;;;;;;;;;1.00;0.00;;;;;17.79;51.58;102577.72;5010274;28;8840;-66
2022/07/06 06:23:45;;;;;;;;;0.00;0.00;;;;;17.84;51.69;102574.38;5010629;28;8962;-65
2022/07/06 06:26:12;;;;;;;;;0.00;0.00;;;;;17.93;52.28;102572.34;5008617;28;8834;-65
2022/07/06 06:28:38;;;;;;;;;0.00;0.00;;;;;18.00;52.13;102579.50;5001713;28;8843;-66
2022/07/06 06:31:05;;;;;;;;;0.00;0.00;;;;;17.93;51.26;102584.06;5009334;28;8880;-66
2022/07/06 06:33:32;;;;;;;;;0.00;0.00;;;;;17.85;51.13;102588.84;5011594;28;8832;-65
2022/07/06 06:35:58;;;;;;;;;0.00;0.00;;;;;17.83;51.23;102580.88;5009549;28;8829;-65
2022/07/06 06:38:25;;;;;;;;;0.00;0.00;;;;;17.86;50.91;102595.97;4995035;28;8819;-66
2022/07/06 06:40:54;;;;;;;;;0.00;0.00;;;;;17.88;50.69;102591.19;5007962;28;8824;-66
2022/07/06 06:43:20;;;;;;;;;0.25;0.00;;;;;17.91;50.47;102593.50;5011135;28;8832;-66
2022/07/06 06:46:10;;;;;;;;;0.00;0.00;;;;;17.93;50.18;102594.13;5010319;28;8833;-66
2022/07/06 06:48:36;;;;;;;;;0.00;0.00;;;;;17.89;50.00;102595.59;5010580;28;8824;-65
2022/07/06 06:51:04;;;;;;;;;0.00;0.00;;;;;17.89;50.08;102593.69;4999848;28;8899;-65
2022/07/06 06:53:30;;;;;;;;;0.00;0.00;;;;;17.91;50.40;102591.63;5011361;28;8828;-66
2022/07/06 06:56:05;;;;;;;;;1.50;0.50;;;;;17.86;49.85;102587.81;5011407;28;8817;-67
2022/07/06 06:58:31;;;;;;;;;0.00;0.00;;;;;17.82;50.08;102581.06;5010939;28;8913;-67
2022/07/06 07:01:18;;;;;;;;;0.00;0.00;;;;;17.84;49.68;102585.28;5011341;28;8832;-66
2022/07/06 07:03:44;;;;;;;;;0.00;0.00;;;;;17.85;49.72;102592.41;5010467;28;8939;-68
2022/07/06 07:06:11;;;;;;;;;0.00;0.00;;;;;17.84;49.48;102584.44;5010833;28;8911;-67
2022/07/06 07:08:37;;;;;;;;;0.25;0.00;;;;;17.84;50.05;102592.63;5010662;28;8832;-68
2022/07/06 07:11:04;;;;;;;;;1.50;0.75;;;;;17.89;50.89;102590.97;5010647;28;8879;-68
2022/07/06 07:13:30;;;;;;;;;0.00;0.00;;;;;17.99;50.69;102590.63;5010080;28;8828;-65
2022/07/06 07:15:57;;;;;;;;;0.25;0.25;;;;;17.96;50.74;102596.47;5010851;28;8919;-68
2022/07/06 07:18:24;;;;;;;;;0.00;0.00;;;;;18.02;50.36;102587.47;5009374;28;8944;-69
2022/07/06 07:20:56;;;;;;;;;0.00;0.00;;;;;18.09;50.99;102593.81;5009437;28;8841;-68
2022/07/06 07:23:23;;;;;;;;;0.00;0.00;;;;;18.10;50.69;102594.66;5010632;28;8852;-67
2022/07/06 07:25:49;;;;;;;;;0.00;0.00;;;;;17.97;50.67;102601.72;5010528;28;8856;-66
2022/07/06 07:28:16;;;;;;;;;0.00;0.00;;;;;17.92;50.67;102606.09;5010522;28;8835;-67
2022/07/06 07:30:45;;;;;;;;;0.00;0.00;;;;;17.85;50.68;102605.19;5009518;28;8808;-65
2022/07/06 07:33:12;;;;;;;;;0.00;0.00;;;;;17.81;51.01;102593.00;5011508;28;8856;-66
2022/07/06 07:35:41;;;;;;;;;0.00;0.00;;;;;17.79;50.84;102595.94;5010586;28;8824;-66
2022/07/06 07:38:08;;;;;;;;;0.00;0.00;;;;;17.79;50.90;102595.94;5010306;28;8845;-66
2022/07/06 07:40:35;;;;;;;;;0.00;0.00;;;;;17.84;50.94;102592.63;5010497;28;8947;-65
2022/07/06 07:43:02;;;;;;;;;0.00;0.00;;;;;17.89;50.44;102590.13;5010270;28;8859;-66
2022/07/06 07:45:29;;;;;;;;;0.00;0.00;;;;;17.95;49.99;102589.34;5010574;28;8836;-66
2022/07/06 07:47:55;;;;;;;;;0.50;0.00;;;;;17.98;49.58;102594.38;5009022;28;8886;-66
2022/07/06 07:50:22;;;;;;;;;0.00;0.00;;;;;18.02;48.76;102595.66;5010547;28;9634;-67
2022/07/06 07:52:49;;;;;;;;;0.00;0.00;;;;;18.08;48.83;102574.94;5010054;28;8845;-67
2022/07/06 07:55:16;;;;;;;;;0.00;0.00;;;;;18.16;48.98;102577.50;5010628;28;9524;-67
2022/07/06 07:58:02;;;;;;;;;0.00;0.00;;;;;18.24;49.54;102585.50;5001996;28;8955;-66
2022/07/06 08:00:29;;;;;;;;;0.00;0.00;;;;;18.30;48.87;102576.50;5009272;28;8839;-67
2022/07/06 08:02:56;;;;;;;;;0.00;0.00;;;;;18.35;48.52;102579.47;5013913;28;8840;-67
2022/07/06 08:05:22;;;;;;;;;0.00;0.00;;;;;18.40;47.72;102576.97;5013754;28;8943;-67
2022/07/06 08:07:49;;;;;;;;;0.00;0.00;;;;;18.41;47.21;102575.94;5012246;28;8805;-67
2022/07/06 08:10:15;;;;;;;;;0.00;0.00;;;;;18.42;46.97;102565.84;5014008;28;8816;-66
2022/07/06 08:12:41;;;;;;;;;0.00;0.00;;;;;18.42;47.44;102572.16;5013955;28;9524;-66
2022/07/06 08:15:12;;;;;;;;;0.00;0.00;;;;;18.49;47.54;102580.38;4994389;28;8902;-66
2022/07/06 08:17:39;;;;;;;;;0.25;0.00;;;;;18.52;47.04;102569.06;4992936;28;8931;-66
2022/07/06 08:20:06;;;;;;;;;0.00;0.00;;;;;18.56;47.35;102569.50;4994477;28;8849;-66
2022/07/06 08:22:36;;;;;;;;;0.00;0.00;;;;;18.60;45.83;102574.31;5009111;28;8852;-66
2022/07/06 08:25:04;;;;;;;;;0.00;0.00;;;;;18.62;44.27;102580.41;5014074;28;8840;-67
2022/07/06 08:27:30;;;;;;;;;0.00;0.00;;;;;18.61;43.54;102570.53;5013993;28;8840;-66
2022/07/06 08:29:57;;;;;;;;;0.00;0.00;;;;;18.65;43.99;102573.69;5013680;28;8821;-66
2022/07/06 08:32:23;;;;;;;;;0.00;0.00;;;;;18.66;43.58;102567.19;5013611;28;8955;-68
2022/07/06 08:35:10;;;;;;;;;0.00;0.00;;;;;18.64;43.48;102566.56;5013780;28;8824;-66
2022/07/06 08:37:37;;;;;;;;;0.00;0.00;;;;;18.68;44.18;102563.22;5013329;28;8832;-67
2022/07/06 08:40:05;;;;;;;;;0.00;0.00;;;;;18.78;44.24;102563.69;5013287;28;8855;-66
2022/07/06 08:42:33;;;;;;;;;0.00;0.00;;;;;18.81;44.44;102564.31;5013384;28;8931;-66
2022/07/06 08:45:03;;;;;;;;;0.00;0.00;;;;;18.85;44.88;102560.97;5013229;28;8816;-66
2022/07/06 08:47:30;;;;;;;;;0.00;0.00;;;;;18.93;44.62;102563.50;5013141;28;8861;-67
2022/07/06 08:49:57;;;;;;;;;1.00;0.00;;;;;19.08;44.64;102557.00;5012239;28;8833;-66
2022/07/06 08:52:24;;;;;;;;;1.00;0.00;;;;;19.11;43.03;102559.31;5013014;28;8936;-66
2022/07/06 08:54:51;;;;;;;;;0.00;0.00;;;;;19.05;42.58;102563.72;5013271;28;8836;-65
2022/07/06 08:57:18;;;;;;;;;0.00;0.00;;;;;19.06;42.96;102557.22;5011566;28;8933;-65
2022/07/06 08:59:45;;;;;;;;;0.00;0.00;;;;;19.12;43.73;102559.13;5013023;28;8844;-65
2022/07/06 09:02:13;;;;;;;;;0.00;0.00;;;;;19.16;43.07;102563.13;5012982;28;8832;-64
2022/07/06 09:04:42;;;;;;;;;0.00;0.00;;;;;19.10;42.67;102566.66;5013011;28;8926;-65
2022/07/06 09:07:09;;;;;;;;;0.00;0.00;;;;;19.03;42.53;102560.34;5012622;28;8852;-65
2022/07/06 09:09:37;;;;;;;;;0.00;0.00;;;;;19.10;42.76;102569.41;5012713;28;8824;-65
2022/07/06 09:12:11;;;;;;;;;0.00;0.00;;;;;19.17;41.61;102567.50;5012556;28;8829;-65
2022/07/06 09:14:37;;;;;;;;;0.00;0.00;;;;;19.21;41.73;102570.66;5012762;28;8817;-65
2022/07/06 09:17:06;;;;;;;;;0.00;0.00;;;;;19.26;40.01;102562.69;5012466;28;8906;-65
2022/07/06 09:19:39;;;;;;;;;0.00;0.00;;;;;19.29;40.42;102558.69;4993167;28;8865;-65
2022/07/06 09:22:06;;;;;;;;;0.00;0.00;;;;;19.32;40.57;102564.56;4993053;28;8880;-66
2022/07/06 09:24:37;;;;;;;;;0.00;0.00;;;;;19.31;41.19;102564.78;5026992;28;9579;-65
2022/07/06 09:27:04;;;;;;;;;0.00;0.00;;;;;19.31;41.09;102570.25;5012297;28;8939;-65
2022/07/06 09:29:32;;;;;;;;;0.00;0.00;;;;;19.24;40.67;102567.50;5012673;28;8820;-65
2022/07/06 09:31:59;;;;;;;;;0.00;0.00;;;;;19.16;40.69;102570.44;5012423;28;8816;-66
2022/07/06 09:34:43;;;;;;;;;0.00;0.00;;;;;19.15;40.85;102568.75;5012424;28;8841;-66
2022/07/06 09:37:10;;;;;;;;;0.00;0.00;;;;;19.22;41.45;102566.88;5012113;28;9265;-66
2022/07/06 09:39:36;;;;;;;;;1.00;0.00;;;;;19.27;40.95;102575.28;5012373;28;8886;-66
2022/07/06 09:42:06;;;;;;;;;0.00;0.00;;;;;19.30;40.58;102572.13;5012432;28;9465;-66
2022/07/06 09:44:36;;;;;;;;;0.00;0.00;;;;;19.39;40.60;102570.03;5012002;28;8871;-66
2022/07/06 09:47:05;;;;;;;;;0.00;0.00;;;;;19.49;40.84;102576.75;5011809;28;8821;-66
2022/07/06 09:49:32;;;;;;;;;0.00;0.00;;;;;19.58;39.58;102571.06;5012088;28;8894;-66
2022/07/06 09:52:01;;;;;;;;;0.00;0.00;;;;;19.65;38.88;102574.69;5001259;28;9508;-66
2022/07/06 09:54:28;;;;;;;;;0.00;0.00;;;;;19.67;38.82;102564.34;5012056;28;8829;-65
2022/07/06 09:56:56;;;;;;;;;0.00;0.00;;;;;19.72;39.54;102570.00;5011486;28;8955;-65
2022/07/06 09:59:26;;;;;;;;;0.00;0.00;;;;;19.78;39.98;102568.34;5012006;28;8840;-65
2022/07/06 10:01:55;;;;;;;;;0.00;0.00;;;;;19.82;40.26;102573.16;5012040;28;8820;-66
2022/07/06 10:04:23;;;;;;;;;0.00;0.00;;;;;19.83;39.42;102571.25;5012411;28;8812;-65
2022/07/06 10:06:50;;;;;;;;;0.00;0.00;;;;;19.88;38.81;102576.91;5011817;28;8863;-65
2022/07/06 10:09:20;;;;;;;;;0.00;0.00;;;;;19.89;38.98;102574.00;5011550;28;9030;-65
2022/07/06 10:11:51;;;;;;;;;0.00;0.00;;;;;19.94;39.29;102570.63;5014384;28;8855;-66
2022/07/06 10:14:21;;;;;;;;;0.00;0.00;;;;;19.99;38.91;102576.28;5010005;28;8821;-64
2022/07/06 10:16:48;;;;;;;;;0.00;0.00;;;;;20.07;38.85;102572.47;5007963;28;9526;-64
2022/07/06 10:19:16;;;;;;;;;0.00;0.00;;;;;20.11;37.46;102577.28;5005648;28;8817;-65
2022/07/06 10:21:44;;;;;;;;;0.00;0.00;;;;;20.14;37.90;102573.28;5007785;28;8861;-65
2022/07/06 10:24:12;;;;;;;;;0.00;0.00;;;;;20.17;38.20;102562.72;5008129;28;8821;-66
2022/07/06 10:26:40;;;;;;;;;0.50;0.50;;;;;20.16;37.65;102569.25;5006648;28;8895;-67
2022/07/06 10:29:07;;;;;;;;;0.00;0.00;;;;;20.24;37.33;102563.56;5008224;28;8837;-66
2022/07/06 10:31:37;;;;;;;;;0.00;0.00;;;;;20.30;37.96;102566.50;4999193;28;8875;-67
2022/07/06 10:34:08;;;;;;;;;0.00;0.00;;;;;20.37;38.16;102561.81;5006696;28;8856;-66
2022/07/06 10:36:43;;;;;;;;;0.00;0.00;;;;;20.37;38.44;102553.59;5007092;28;8841;-67
2022/07/06 10:41:56;;;;;;;;;0.00;0.00;;;;;20.47;39.23;102551.25;5003447;28;8827;-66
2022/07/06 10:44:25;;;;;;;;;0.00;0.00;;;;;20.48;39.25;102541.97;5003561;28;8896;-64
2022/07/06 10:46:59;;;;;;;;;0.00;0.00;;;;;20.55;39.65;102547.47;5003037;28;9594;-66
2022/07/06 10:49:27;;;;;;;;;0.00;0.00;;;;;20.55;38.66;102540.09;5004671;28;8910;-65
2022/07/06 10:52:16;;;;;;;;;0.00;0.00;;;;;20.52;39.07;102540.50;5000962;28;8922;-66
2022/07/06 10:54:43;;;;;;;;;0.00;0.00;;;;;20.57;39.24;102542.59;5003081;28;8863;-65
2022/07/06 10:57:14;;;;;;;;;0.00;0.00;;;;;20.68;38.82;102539.16;5003677;28;8857;-67
2022/07/06 10:59:41;;;;;;;;;0.00;0.00;;;;;20.62;38.64;102531.81;5004238;28;8832;-68
2022/07/06 11:02:12;;;;;;;;;0.00;0.00;;;;;20.66;39.37;102533.91;5006443;28;8991;-66
2022/07/06 11:04:40;;;;;;;;;0.00;0.00;;;;;20.72;39.04;102530.28;5001444;28;8856;-67
2022/07/06 11:07:08;;;;;;;;;0.50;0.00;;;;;20.79;39.32;102532.16;5002096;28;8864;-65
2022/07/06 11:09:35;;;;;;;;;0.00;0.00;;;;;20.73;37.73;102534.69;5004914;28;9264;-65
2022/07/06 11:12:15;;;;;;;;;0.00;0.00;;;;;20.82;37.66;102527.03;5002918;28;8955;-66
2022/07/06 11:14:41;;;;;;;;;0.50;0.00;;;;;20.88;37.74;102528.91;4998916;28;8844;-67
2022/07/06 11:17:10;;;;;;;;;0.00;0.00;;;;;20.87;38.40;102523.69;5004424;28;9598;-66
2022/07/06 11:19:37;;;;;;;;;0.00;0.00;;;;;20.87;38.40;102512.72;5001511;28;8847;-65
2022/07/06 11:22:09;;;;;;;;;0.00;0.00;;;;;20.96;38.77;102512.22;5001770;28;8888;-67
2022/07/06 11:24:39;;;;;;;;;0.00;0.00;;;;;21.02;38.42;102509.63;5005474;28;9555;-67
2022/07/06 11:27:06;;;;;;;;;0.00;0.00;;;;;21.03;37.96;102508.59;4999658;28;9017;-66
2022/07/06 11:29:34;;;;;;;;;0.25;0.25;;;;;21.09;38.63;102504.94;5006039;28;8926;-66
2022/07/06 11:32:03;;;;;;;;;0.00;0.00;;;;;21.19;38.84;102510.78;5000315;28;8914;-67
2022/07/06 11:34:32;;;;;;;;;0.00;0.00;;;;;21.28;39.09;102509.41;4995896;28;8854;-66
2022/07/06 11:37:01;;;;;;;;;0.00;0.00;;;;;21.37;39.10;102507.25;5003358;28;8821;-66
2022/07/06 11:39:32;;;;;;;;;0.00;0.00;;;;;21.41;38.35;102506.56;5005029;28;8840;-67
2022/07/06 11:42:00;;;;;;;;;0.00;0.00;;;;;21.39;38.84;102496.88;5002291;28;8843;-67
2022/07/06 11:44:27;;;;;;;;;0.00;0.00;;;;;21.36;38.25;102500.09;5004647;28;8926;-67